createdAt,value
2022-09-10T00:00:05.114Z,100.00
2022-09-10T00:02:44.532Z,100.00
2022-09-10T00:05:21.440Z,100.00
2022-09-10T00:07:59.887Z,100.00
2022-09-10T00:10:34.402Z,100.00
2022-09-10T00:13:04.505Z,100.00
2022-09-10T00:15:43.351Z,100.00
2022-09-10T00:18:22.332Z,100.00
2022-09-10T00:20:57.254Z,100.00
2022-09-10T00:23:37.331Z,100.00
2022-09-10T00:26:26.817Z,100.00
2022-09-10T00:29:02.474Z,100.00
2022-09-10T00:31:37.685Z,100.00
2022-09-10T00:34:14.450Z,100.00
2022-09-10T00:36:52.604Z,100.00
2022-09-10T00:39:26.804Z,100.00
2022-09-10T00:41:58.394Z,100.00
2022-09-10T00:44:42.556Z,100.00
2022-09-10T00:47:23.624Z,100.00
2022-09-10T00:50:20.036Z,100.00
2022-09-10T00:52:58.896Z,100.00
2022-09-10T00:55:46.618Z,100.00
2022-09-10T00:58:20.645Z,100.00
2022-09-10T01:00:55.112Z,100.00
2022-09-10T01:03:30.291Z,100.00
2022-09-10T01:06:05.540Z,100.00
2022-09-10T01:08:49.574Z,100.00
2022-09-10T01:11:42.601Z,100.00
2022-09-10T01:14:37.268Z,100.00
2022-09-10T01:17:34.536Z,100.00
2022-09-10T01:20:12.888Z,100.00
2022-09-10T01:23:20.492Z,100.00
2022-09-10T01:26:20.194Z,100.00
2022-09-10T01:29:28.556Z,100.00
2022-09-10T01:32:20.927Z,100.00
2022-09-10T01:35:21.534Z,100.00
2022-09-10T01:37:57.393Z,100.00
2022-09-10T01:40:36.543Z,100.00
2022-09-10T01:43:16.222Z,100.00
2022-09-10T01:46:32.873Z,100.00
2022-09-10T01:49:28.871Z,100.00
2022-09-10T01:52:51.745Z,100.00
2022-09-10T01:55:47.350Z,100.00
2022-09-10T01:58:41.738Z,100.00
2022-09-10T02:02:04.532Z,100.00
2022-09-10T02:04:37.705Z,100.00
2022-09-10T02:07:15.992Z,100.00
2022-09-10T02:09:55.048Z,100.00
2022-09-10T02:12:32.812Z,100.00
2022-09-10T02:15:33.569Z,100.00
2022-09-10T02:18:29.903Z,100.00
2022-09-10T02:21:03.358Z,100.00
2022-09-10T02:24:12.972Z,100.00
2022-09-10T02:26:51.282Z,100.00
2022-09-10T02:29:29.093Z,100.00
2022-09-10T02:32:08.495Z,100.00
2022-09-10T02:34:53.553Z,100.00
2022-09-10T02:37:35.694Z,100.00
2022-09-10T02:40:11.826Z,100.00
2022-09-10T02:42:48.497Z,100.00
2022-09-10T02:45:27.436Z,100.00
2022-09-10T02:48:04.343Z,100.00
2022-09-10T02:50:41.936Z,100.00
2022-09-10T02:53:21.942Z,100.00
2022-09-10T02:56:11.057Z,100.00
2022-09-10T02:58:46.388Z,100.00
2022-09-10T03:01:20.656Z,100.00
2022-09-10T03:04:10.663Z,100.00
2022-09-10T03:06:48.140Z,100.00
2022-09-10T03:09:22.323Z,100.00
2022-09-10T03:12:00.705Z,100.00
2022-09-10T03:14:38.259Z,100.00
2022-09-10T03:17:20.728Z,100.00
2022-09-10T03:19:56.278Z,100.00
2022-09-10T03:22:32.260Z,100.00
2022-09-10T03:25:12.253Z,100.00
2022-09-10T03:27:50.429Z,100.00
2022-09-10T03:30:28.167Z,100.00
2022-09-10T03:32:59.957Z,100.00
2022-09-10T03:35:37.708Z,100.00
2022-09-10T03:38:14.099Z,100.00
2022-09-10T03:40:55.352Z,100.00
2022-09-10T03:43:33.320Z,100.00
2022-09-10T03:46:12.481Z,100.00
2022-09-10T03:48:55.196Z,100.00
2022-09-10T03:51:27.664Z,100.00
2022-09-10T03:54:14.150Z,100.00
2022-09-10T03:56:48.820Z,100.00
2022-09-10T03:59:32.368Z,100.00
2022-09-10T04:02:12.559Z,100.00
2022-09-10T04:04:45.534Z,100.00
2022-09-10T04:07:21.412Z,100.00
2022-09-10T04:10:01.214Z,100.00
2022-09-10T04:12:37.518Z,100.00
2022-09-10T04:15:13.520Z,100.00
2022-09-10T04:17:46.850Z,100.00
2022-09-10T04:20:21.598Z,100.00
2022-09-10T04:22:57.886Z,100.00
2022-09-10T04:25:35.509Z,100.00
2022-09-10T04:28:11.761Z,100.00
2022-09-10T04:30:48.202Z,100.00
2022-09-10T04:33:23.160Z,100.00
2022-09-10T04:36:03.660Z,100.00
2022-09-10T04:38:45.394Z,100.00
2022-09-10T04:41:25.952Z,100.00
2022-09-10T04:44:02.683Z,100.00
2022-09-10T04:46:36.473Z,100.00
2022-09-10T04:49:24.495Z,100.00
2022-09-10T04:51:56.235Z,100.00
2022-09-10T04:54:35.011Z,100.00
2022-09-10T04:57:10.417Z,100.00
2022-09-10T04:59:46.061Z,100.00
2022-09-10T05:02:17.227Z,100.00
2022-09-10T05:04:51.595Z,100.00
2022-09-10T05:07:27.557Z,100.00
2022-09-10T05:10:03.189Z,100.00
2022-09-10T05:12:40.510Z,100.00
2022-09-10T05:15:14.076Z,100.00
2022-09-10T05:17:49.950Z,100.00
2022-09-10T05:20:22.584Z,100.00
2022-09-10T05:23:00.085Z,100.00
2022-09-10T05:25:39.317Z,100.00
2022-09-10T05:28:18.602Z,100.00
2022-09-10T05:30:55.633Z,100.00
2022-09-10T05:33:31.440Z,100.00
2022-09-10T05:36:07.323Z,100.00
2022-09-10T05:38:47.297Z,100.00
2022-09-10T05:41:22.289Z,100.00
2022-09-10T05:43:58.457Z,100.00
2022-09-10T05:46:37.848Z,100.00
2022-09-10T05:49:23.858Z,100.00
2022-09-10T05:51:58.970Z,100.00
2022-09-10T05:54:32.112Z,100.00
2022-09-10T05:57:07.859Z,100.00
2022-09-10T05:59:46.301Z,100.00
2022-09-10T06:02:25.570Z,100.00
2022-09-10T06:05:03.932Z,100.00
2022-09-10T06:07:40.513Z,100.00
2022-09-10T06:10:20.040Z,100.00
2022-09-10T06:12:57.174Z,100.00
2022-09-10T06:15:37.108Z,100.00
2022-09-10T06:18:12.508Z,100.00
2022-09-10T06:20:42.471Z,100.00
2022-09-10T06:23:18.411Z,100.00
2022-09-10T06:26:10.397Z,100.00
2022-09-10T06:28:47.413Z,100.00
2022-09-10T06:31:27.344Z,100.00
2022-09-10T06:34:02.689Z,100.00
2022-09-10T06:36:45.192Z,100.00
2022-09-10T06:39:23.575Z,100.00
2022-09-10T06:42:07.356Z,100.00
2022-09-10T06:45:00.333Z,100.00
2022-09-10T06:51:03.497Z,100.00
2022-09-10T06:53:51.019Z,100.00
2022-09-10T06:56:23.753Z,100.00
2022-09-10T06:59:02.398Z,100.00
2022-09-10T07:01:41.887Z,100.00
2022-09-10T07:04:18.579Z,100.00
2022-09-10T07:06:54.011Z,100.00
2022-09-10T07:09:46.149Z,100.00
2022-09-10T07:12:24.798Z,100.00
2022-09-10T07:15:02.175Z,100.00
2022-09-10T07:17:43.302Z,100.00
2022-09-10T07:20:18.505Z,100.00
2022-09-10T07:23:03.388Z,100.00
2022-09-10T07:25:39.450Z,100.00
2022-09-10T07:28:26.658Z,100.00
2022-09-10T07:31:22.256Z,99.75
2022-09-10T07:33:59.716Z,100.00
2022-09-10T07:36:32.004Z,100.00
2022-09-10T07:39:04.733Z,100.00
2022-09-10T07:41:52.166Z,100.00
2022-09-10T07:44:31.405Z,100.00
2022-09-10T07:47:10.014Z,100.00
2022-09-10T07:49:44.865Z,100.00
2022-09-10T07:52:24.538Z,100.00
2022-09-10T07:55:03.906Z,100.00
2022-09-10T07:57:41.556Z,100.00
2022-09-10T08:00:26.673Z,100.00
2022-09-10T08:03:06.317Z,100.00
2022-09-10T08:05:44.142Z,100.00
2022-09-10T08:08:24.429Z,100.00
2022-09-10T08:10:54.606Z,100.00
2022-09-10T08:13:37.972Z,100.00
2022-09-10T08:16:32.413Z,100.00
2022-09-10T08:19:11.017Z,100.00
2022-09-10T08:21:53.481Z,100.00
2022-09-10T08:24:40.690Z,100.00
2022-09-10T08:27:25.753Z,100.00
2022-09-10T08:30:04.322Z,100.00
2022-09-10T08:32:36.527Z,100.00
2022-09-10T08:35:16.798Z,99.79
2022-09-10T08:37:49.326Z,99.15
2022-09-10T08:40:23.860Z,99.57
2022-09-10T08:43:01.793Z,99.73
2022-09-10T08:45:55.837Z,98.67
2022-09-10T08:48:32.796Z,99.17
2022-09-10T08:51:21.452Z,100.00
2022-09-10T08:53:59.871Z,97.07
2022-09-10T08:56:28.172Z,98.07
2022-09-10T08:59:11.382Z,94.10
2022-09-10T09:01:54.612Z,93.44
2022-09-10T09:04:54.199Z,91.73
2022-09-10T09:07:50.596Z,89.71
2022-09-10T09:10:33.018Z,89.38
2022-09-10T09:13:34.038Z,90.50
2022-09-10T09:16:16.105Z,91.72
2022-09-10T09:19:14.843Z,92.90
2022-09-10T09:21:54.895Z,90.90
2022-09-10T09:25:19.521Z,86.28
2022-09-10T09:27:57.683Z,84.57
2022-09-10T09:30:49.830Z,84.53
2022-09-10T09:33:30.283Z,82.20
2022-09-10T09:36:18.547Z,84.49
2022-09-10T09:38:59.852Z,80.66
2022-09-10T09:41:47.106Z,79.79
2022-09-10T09:44:29.452Z,80.17
2022-09-10T09:47:04.888Z,80.15
2022-09-10T09:49:43.050Z,80.13
2022-09-10T09:52:32.812Z,80.42
2022-09-10T09:55:15.940Z,80.29
2022-09-10T09:58:21.035Z,78.54
2022-09-10T10:01:07.043Z,78.77
2022-09-10T10:03:59.679Z,74.29
2022-09-10T10:06:34.809Z,71.86
2022-09-10T10:09:21.422Z,69.81
2022-09-10T10:12:04.085Z,73.25
2022-09-10T10:14:48.291Z,73.19
2022-09-10T10:17:57.568Z,70.65
2022-09-10T10:20:44.105Z,73.10
2022-09-10T10:23:38.728Z,73.45
2022-09-10T10:26:35.540Z,72.30
2022-09-10T10:29:24.647Z,71.39
2022-09-10T10:32:05.479Z,70.28
2022-09-10T10:35:19.092Z,70.45
2022-09-10T10:38:10.541Z,63.75
2022-09-10T10:41:15.161Z,64.87
2022-09-10T10:44:04.123Z,58.78
2022-09-10T10:47:16.012Z,60.98
2022-09-10T10:50:09.127Z,59.00
2022-09-10T10:53:17.549Z,59.16
2022-09-10T10:56:04.254Z,57.36
2022-09-10T10:58:56.076Z,57.87
2022-09-10T11:01:33.480Z,55.76
2022-09-10T11:04:32.865Z,52.89
2022-09-10T11:07:20.102Z,56.43
2022-09-10T11:10:27.081Z,52.83
2022-09-10T11:13:31.695Z,53.44
2022-09-10T11:16:27.347Z,53.15
2022-09-10T11:19:25.672Z,52.88
2022-09-10T11:22:16.885Z,52.20
2022-09-10T11:25:16.008Z,54.71
2022-09-10T11:28:07.083Z,52.17
2022-09-10T11:30:46.619Z,54.57
2022-09-10T11:33:49.841Z,51.44
2022-09-10T11:36:44.472Z,49.67
2022-09-10T11:39:35.574Z,51.19
2022-09-10T11:42:23.038Z,51.71
2022-09-10T11:45:14.586Z,52.67
2022-09-10T11:48:07.305Z,49.46
2022-09-10T11:50:56.196Z,49.63
2022-09-10T11:53:44.476Z,47.32
2022-09-10T11:56:26.509Z,49.17
2022-09-10T11:59:05.179Z,48.44
2022-09-10T12:02:02.690Z,48.79
2022-09-10T12:05:35.731Z,48.20
2022-09-10T12:11:51.559Z,48.87
2022-09-10T12:14:31.490Z,46.45
2022-09-10T12:17:30.337Z,46.29
2022-09-10T12:20:06.296Z,48.43
2022-09-10T12:22:40.655Z,48.45
2022-09-10T12:25:37.291Z,49.50
2022-09-10T12:28:46.398Z,47.34
2022-09-10T12:31:25.002Z,46.06
2022-09-10T12:34:24.236Z,46.89
2022-09-10T12:37:17.279Z,47.90
2022-09-10T12:40:27.434Z,46.79
2022-09-10T12:43:26.829Z,47.21
2022-09-10T12:46:31.291Z,47.93
2022-09-10T12:49:14.189Z,47.01
2022-09-10T12:51:58.694Z,47.62
2022-09-10T12:54:50.769Z,48.78
2022-09-10T12:57:43.263Z,48.82
2022-09-10T13:00:48.938Z,45.57
2022-09-10T13:03:22.642Z,46.97
2022-09-10T13:06:00.885Z,44.91
2022-09-10T13:08:48.439Z,48.10
2022-09-10T13:11:25.188Z,47.70
2022-09-10T13:14:08.581Z,45.64
2022-09-10T13:16:44.956Z,46.55
2022-09-10T13:19:31.852Z,45.26
2022-09-10T13:22:36.267Z,46.36
2022-09-10T13:25:31.585Z,45.27
2022-09-10T13:28:27.481Z,49.96
2022-09-10T13:31:06.438Z,47.04
2022-09-10T13:34:05.756Z,44.97
2022-09-10T13:37:03.673Z,45.33
2022-09-10T13:39:48.354Z,46.29
2022-09-10T13:42:35.576Z,45.25
2022-09-10T13:45:23.687Z,45.50
2022-09-10T13:48:15.124Z,45.85
2022-09-10T13:51:09.946Z,45.88
2022-09-10T13:53:50.491Z,44.18
2022-09-10T13:56:28.422Z,45.66
2022-09-10T13:59:07.331Z,47.07
2022-09-10T14:01:56.790Z,46.61
2022-09-10T14:04:32.533Z,44.58
2022-09-10T14:07:22.349Z,44.08
2022-09-10T14:09:58.816Z,44.84
2022-09-10T14:12:33.480Z,44.22
2022-09-10T14:15:09.180Z,44.99
2022-09-10T14:17:56.889Z,46.33
2022-09-10T14:20:30.721Z,45.30
2022-09-10T14:23:07.166Z,44.43
2022-09-10T14:25:46.924Z,43.24
2022-09-10T14:28:16.823Z,43.77
2022-09-10T14:31:18.813Z,43.08
2022-09-10T14:33:54.218Z,42.89
2022-09-10T14:36:44.906Z,43.65
2022-09-10T14:39:22.837Z,42.54
2022-09-10T14:42:27.411Z,42.97
2022-09-10T14:45:10.636Z,41.42
2022-09-10T14:47:52.201Z,41.98
2022-09-10T14:50:34.788Z,41.34
2022-09-10T14:53:10.261Z,40.75
2022-09-10T14:55:55.639Z,42.62
2022-09-10T14:58:33.710Z,41.90
2022-09-10T15:01:06.912Z,43.84
2022-09-10T15:03:38.395Z,42.42
2022-09-10T15:06:10.795Z,43.54
2022-09-10T15:08:47.817Z,42.31
2022-09-10T15:11:27.950Z,42.14
2022-09-10T15:14:02.829Z,42.12
2022-09-10T15:16:44.045Z,41.76
2022-09-10T15:19:19.975Z,42.60
2022-09-10T15:21:56.466Z,42.74
2022-09-10T15:24:52.503Z,41.76
2022-09-10T15:27:38.462Z,43.77
2022-09-10T15:30:15.245Z,42.30
2022-09-10T15:32:42.252Z,43.48
2022-09-10T15:35:16.156Z,42.71
2022-09-10T15:37:54.002Z,41.75
2022-09-10T15:40:29.371Z,40.79
2022-09-10T15:43:08.517Z,40.58
2022-09-10T15:45:41.296Z,39.58
2022-09-10T15:48:16.587Z,41.01
2022-09-10T15:51:00.516Z,43.13
2022-09-10T15:53:36.052Z,43.08
2022-09-10T15:56:15.795Z,42.14
2022-09-10T15:58:59.475Z,38.42
2022-09-10T16:01:32.740Z,38.29
2022-09-10T16:04:17.345Z,36.29
2022-09-10T16:06:55.836Z,34.80
2022-09-10T16:09:28.413Z,34.55
2022-09-10T16:12:03.906Z,35.43
2022-09-10T16:14:42.550Z,35.44
2022-09-10T16:17:23.366Z,36.12
2022-09-10T16:19:56.695Z,37.82
2022-09-10T16:22:39.283Z,39.78
2022-09-10T16:25:17.504Z,41.12
2022-09-10T16:27:52.671Z,40.90
2022-09-10T16:30:31.798Z,40.90
2022-09-10T16:33:09.914Z,40.60
2022-09-10T16:35:50.105Z,42.31
2022-09-10T16:38:30.474Z,43.71
2022-09-10T16:41:09.757Z,44.45
2022-09-10T16:43:45.683Z,46.39
2022-09-10T16:46:24.625Z,46.41
2022-09-10T16:48:59.321Z,47.93
2022-09-10T16:51:34.684Z,48.08
2022-09-10T16:54:40.357Z,50.50
2022-09-10T16:57:12.868Z,50.92
2022-09-10T16:59:55.021Z,52.53
2022-09-10T17:02:35.350Z,53.27
2022-09-10T17:05:11.317Z,54.31
2022-09-10T17:07:54.602Z,55.33
2022-09-10T17:10:30.620Z,55.55
2022-09-10T17:13:12.801Z,55.77
2022-09-10T17:16:23.219Z,57.27
2022-09-10T17:19:12.151Z,57.28
2022-09-10T17:21:44.609Z,56.31
2022-09-10T17:24:28.476Z,57.60
2022-09-10T17:27:06.817Z,57.77
2022-09-10T17:29:41.978Z,58.47
2022-09-10T17:32:08.970Z,58.59
2022-09-10T17:34:50.116Z,59.60
2022-09-10T17:37:32.468Z,59.94
2022-09-10T17:40:20.228Z,60.67
2022-09-10T17:42:56.538Z,61.42
2022-09-10T17:45:32.210Z,61.13
2022-09-10T17:48:07.333Z,62.01
2022-09-10T17:50:46.330Z,62.76
2022-09-10T17:53:27.520Z,63.11
2022-09-10T17:56:05.676Z,63.69
2022-09-10T17:58:43.052Z,64.07
2022-09-10T18:01:32.263Z,65.20
2022-09-10T18:04:09.663Z,65.45
2022-09-10T18:06:58.259Z,65.15
2022-09-10T18:09:30.739Z,67.14
2022-09-10T18:12:10.550Z,69.33
2022-09-10T18:14:47.356Z,68.65
2022-09-10T18:17:38.919Z,70.24
2022-09-10T18:20:11.602Z,69.83
2022-09-10T18:22:57.797Z,70.53
2022-09-10T18:25:38.743Z,70.22
2022-09-10T18:28:14.284Z,70.78
2022-09-10T18:30:49.820Z,71.39
2022-09-10T18:33:31.211Z,71.92
2022-09-10T18:36:15.405Z,70.63
2022-09-10T18:38:53.332Z,70.32
2022-09-10T18:41:32.115Z,70.21
2022-09-10T18:44:18.171Z,70.22
2022-09-10T18:47:01.457Z,72.54
2022-09-10T18:49:34.408Z,71.91
2022-09-10T18:52:13.537Z,73.07
2022-09-10T18:54:46.570Z,72.41
2022-09-10T18:57:22.162Z,74.69
2022-09-10T19:00:02.553Z,74.30
2022-09-10T19:02:38.913Z,74.25
2022-09-10T19:05:14.430Z,75.51
2022-09-10T19:07:51.075Z,74.62
2022-09-10T19:10:29.915Z,75.30
2022-09-10T19:13:15.738Z,76.81
2022-09-10T19:18:43.873Z,76.86
2022-09-10T19:21:26.269Z,76.43
2022-09-10T19:24:10.340Z,77.23
2022-09-10T19:26:47.729Z,76.94
2022-09-10T19:29:32.740Z,77.46
2022-09-10T19:32:07.668Z,78.94
2022-09-10T19:34:48.319Z,80.09
2022-09-10T19:37:27.247Z,81.67
2022-09-10T19:40:12.045Z,81.92
2022-09-10T19:42:47.871Z,82.26
2022-09-10T19:45:26.127Z,82.69
2022-09-10T19:48:06.319Z,83.44
2022-09-10T19:50:43.816Z,84.29
2022-09-10T19:53:24.107Z,83.93
2022-09-10T19:56:08.734Z,84.58
2022-09-10T19:58:42.647Z,84.71
2022-09-10T20:01:25.289Z,85.87
2022-09-10T20:04:08.473Z,87.66
2022-09-10T20:06:54.460Z,87.64
2022-09-10T20:09:45.114Z,89.90
2022-09-10T20:12:36.561Z,90.31
2022-09-10T20:15:09.471Z,89.99
2022-09-10T20:17:42.737Z,91.00
2022-09-10T20:20:21.876Z,91.88
2022-09-10T20:23:05.277Z,90.58
2022-09-10T20:25:48.936Z,90.58
2022-09-10T20:28:19.376Z,90.53
2022-09-10T20:31:03.542Z,91.17
2022-09-10T20:33:42.440Z,91.30
2022-09-10T20:36:25.365Z,92.17
2022-09-10T20:39:01.264Z,92.11
2022-09-10T20:41:34.509Z,90.88
2022-09-10T20:44:10.363Z,91.12
2022-09-10T20:46:51.856Z,92.59
2022-09-10T20:49:27.606Z,91.26
2022-09-10T20:52:07.096Z,90.56
2022-09-10T20:54:46.730Z,89.84
2022-09-10T20:57:22.948Z,90.10
2022-09-10T21:00:01.266Z,88.92
2022-09-10T21:02:35.651Z,88.88
2022-09-10T21:05:14.386Z,90.24
2022-09-10T21:07:47.357Z,90.27
2022-09-10T21:10:27.885Z,90.54
2022-09-10T21:13:11.724Z,90.38
2022-09-10T21:15:47.580Z,92.01
2022-09-10T21:18:22.714Z,93.16
2022-09-10T21:21:08.567Z,93.62
2022-09-10T21:23:51.313Z,93.86
2022-09-10T21:26:39.517Z,94.52
2022-09-10T21:29:19.983Z,96.76
2022-09-10T21:32:04.504Z,98.20
2022-09-10T21:34:43.367Z,98.96
2022-09-10T21:37:21.424Z,99.65
2022-09-10T21:39:57.021Z,100.00
2022-09-10T21:42:38.120Z,100.00
2022-09-10T21:45:08.381Z,100.00
2022-09-10T21:47:41.609Z,100.00
2022-09-10T21:50:11.668Z,100.00
2022-09-10T21:52:48.502Z,100.00
2022-09-10T21:55:26.536Z,100.00
2022-09-10T21:58:12.012Z,100.00
2022-09-10T22:00:52.004Z,100.00
2022-09-10T22:03:30.984Z,100.00
2022-09-10T22:06:17.580Z,100.00
2022-09-10T22:08:50.731Z,100.00
2022-09-10T22:11:34.746Z,100.00
2022-09-10T22:14:07.318Z,100.00
2022-09-10T22:16:48.553Z,100.00
2022-09-10T22:19:28.091Z,100.00
2022-09-10T22:22:11.353Z,100.00
2022-09-10T22:24:49.652Z,100.00
2022-09-10T22:30:18.624Z,100.00
2022-09-10T22:32:57.089Z,100.00
2022-09-10T22:35:33.050Z,100.00
2022-09-10T22:38:16.833Z,99.88
2022-09-10T22:40:54.065Z,99.39
2022-09-10T22:43:31.683Z,98.80
2022-09-10T22:46:07.178Z,99.08
2022-09-10T22:48:46.805Z,98.56
2022-09-10T22:51:34.306Z,99.27
2022-09-10T22:54:07.849Z,98.96
2022-09-10T22:56:40.684Z,99.73
2022-09-10T22:59:30.619Z,99.05
2022-09-10T23:02:07.628Z,98.28
2022-09-10T23:04:42.754Z,99.12
2022-09-10T23:07:16.734Z,97.72
2022-09-10T23:09:57.299Z,97.76
2022-09-10T23:12:27.596Z,98.43
2022-09-10T23:15:05.470Z,98.00
2022-09-10T23:17:41.531Z,98.10
2022-09-10T23:20:14.295Z,99.37
2022-09-10T23:22:51.374Z,98.57
2022-09-10T23:25:23.851Z,99.24
2022-09-10T23:27:59.184Z,99.91
2022-09-10T23:30:37.717Z,100.00
2022-09-10T23:33:13.685Z,100.00
2022-09-10T23:35:56.723Z,100.00
2022-09-10T23:38:37.109Z,100.00
2022-09-10T23:41:13.413Z,100.00
2022-09-10T23:43:51.630Z,100.00
2022-09-10T23:46:33.729Z,100.00
2022-09-10T23:49:11.942Z,100.00
2022-09-10T23:51:48.718Z,100.00
2022-09-10T23:54:23.646Z,100.00
2022-09-10T23:57:04.831Z,100.00
2022-09-10T23:59:43.276Z,100.00
